• Join FlightAware (Why Join?)
  • Login
  • US Flag 
12:28AM EDT


 

Airport Tracker/Info


-or-


 

Live Flight TrackerFlight Track Log ✈ VH-HWU ✈ 23-Aug-2013 ✈ YGTH / GFF - YSBK / BWU

Flight Track Log - Related Links

Times and Time Zones

All times are in EDT time to prevent confusion due to time zone crossing. See the VH-HWU flight status page for this flight to view local times or setup timezone preferences in your user account.

Time Position Orientation Groundspeed Altitude Reporting Facility
EDT Latitude Longitude Course Direction KTS MPH feet Rate Location/Type
12:20AM -34.2510 146.0673 71° East 9,000  Level Aus ATC (Calculated)
12:21AM -34.2316 146.1377 71° East 9,000 -360 Level Aus ATC (Calculated)
12:22AM -34.2351 146.1989 62° Northeast 9,000 -420 Level Aus ATC (Calculated)
12:23AM -34.2140 146.2699 56° Northeast 9,000 -540 Level Aus ATC (Calculated)
12:24AM -34.2093 146.2856 70° East  Level FlightAware Approximate
12:25AM -34.1857 146.3645 70° East  Level FlightAware Approximate
12:26AM -34.1679 146.4242 70° East  Level FlightAware Approximate
12:26AM -34.1694 146.3496 70° East 159 183 7,200  Level Aus ATC (RADAR)
12:27AM -34.1554 146.4037 73° East 167 192 8,000 720 Climbing Aus ATC (RADAR)
12:27AM -34.1433 146.4437 70° East 169 194 8,500 660 Climbing Aus ATC (RADAR)
12:28AM -34.1351 146.4754 73° East 170 196 8,900 300 Climbing Aus ATC (RADAR)
12:29AM -34.1241 146.5195 73° East 182 209 8,900  Level Aus ATC (RADAR)
12:30AM -34.1021 146.5804 66° East 196 226 8,900  Level Aus ATC (RADAR)
12:31AM -34.0833 146.6501 72° East 206 237 8,900  Level Aus ATC (RADAR)
12:32AM -34.0697 146.7113 75° East 192 221 8,900  Level Aus ATC (RADAR)
12:32AM -34.0548 146.7546 67° East 201 231 8,900  Level Aus ATC (RADAR)
12:33AM -34.0440 146.7931 71° East 204 235 8,900  Level Aus ATC (RADAR)
12:34AM -34.0314 146.8420 73° East 201 231 8,900  Level Aus ATC (RADAR)
12:35AM -34.0129 146.9062 71° East 199 229 8,900  Level Aus ATC (RADAR)
12:36AM -33.9951 146.9664 70° East 205 236 8,900  Level Aus ATC (RADAR)
12:37AM -33.9774 147.0311 72° East 200 230 8,900  Level Aus ATC (RADAR)
12:37AM -33.9630 147.0845 72° East 199 229 8,900  Level Aus ATC (RADAR)
12:38AM -33.9522 147.1231 71° East 205 236 8,900  Level Aus ATC (RADAR)
12:39AM -33.9383 147.1707 71° East 199 229 8,900  Level Aus ATC (RADAR)
12:40AM -33.9261 147.2379 78° East 207 238 8,900  Level Aus ATC (RADAR)
12:41AM -33.9236 147.3484 88° East 195 224 8,900  Level Aus ATC (RADAR)
12:42AM -33.9209 147.4143 87° East 193 222 8,900  Level Aus ATC (RADAR)
12:43AM -33.9172 147.4802 86° East 194 223 8,900  Level Aus ATC (RADAR)
12:44AM -33.9141 147.5303 86° East 196 226 8,900  Level Aus ATC (RADAR)
12:45AM -33.9111 147.5750 86° East 197 227 8,900  Level Aus ATC (RADAR)
12:46AM -33.9073 147.6474 86° East 198 228 8,900  Level Aus ATC (RADAR)
12:47AM -33.9043 147.7029 86° East 201 231 8,900  Level Aus ATC (RADAR)
12:48AM -33.9013 147.7583 86° East 199 229 8,900  Level Aus ATC (RADAR)
12:48AM -33.8986 147.7975 85° East 198 228 8,900  Level Aus ATC (RADAR)
12:49AM -33.8956 147.8529 86° East 196 226 8,900  Level Aus ATC (RADAR)
12:50AM -33.8918 147.9202 86° East 198 228 8,900  Level Aus ATC (RADAR)
12:51AM -33.8873 147.9930 86° East 197 227 8,900  Level Aus ATC (RADAR)
12:52AM -33.8834 148.0601 86° East 201 231 8,900  Level Aus ATC (RADAR)
12:53AM -33.8791 148.1176 85° East 203 234 8,900  Level Aus ATC (RADAR)
12:53AM -33.8774 148.1562 87° East 197 227 8,900  Level Aus ATC (RADAR)
12:54AM -33.8732 148.2167 85° East 196 226 8,900  Level Aus ATC (RADAR)
12:55AM -33.8699 148.2736 86° East 200 230 8,900  Level Aus ATC (RADAR)
12:56AM -33.8647 148.3474 85° East 200 230 8,900  Level Aus ATC (RADAR)
12:57AM -33.8601 148.4189 86° East 196 226 8,900  Level Aus ATC (RADAR)
12:58AM -33.8568 148.4698 86° East 197 227 8,900  Level Aus ATC (RADAR)
12:59AM -33.8547 148.5085 86° East 196 226 8,900  Level Aus ATC (RADAR)
12:59AM -33.8509 148.5577 85° East 193 222 8,900  Level Aus ATC (RADAR)
01:01AM -33.8446 148.6534 86° East 200 230 8,900  Level Aus ATC (RADAR)
01:02AM -33.8468 148.7085 93° East 196 226 8,900 -120 Level Aus ATC (RADAR)
01:02AM -33.8504 148.7481 96° East 199 229 8,800 -120 Descending Aus ATC (RADAR)
01:03AM -33.8525 148.7994 93° East 200 230 8,800  Level Aus ATC (RADAR)
01:04AM -33.8549 148.8388 94° East 200 230 8,800  Level Aus ATC (RADAR)
01:04AM -33.8567 148.8891 93° East 196 226 8,800  Level Aus ATC (RADAR)
01:05AM -33.8583 148.9231 93° East 199 229 8,800  Level Aus ATC (RADAR)
01:05AM -33.8606 148.9632 94° East 203 234 8,800  Level Aus ATC (RADAR)
01:06AM -33.8634 149.0264 93° East 203 234 8,800  Level Aus ATC (RADAR)
01:07AM -33.8663 149.0921 93° East 190 219 8,800  Level Aus ATC (RADAR)
01:08AM -33.8685 149.1417 93° East 197 227 8,800  Level Aus ATC (RADAR)
01:09AM -33.8700 149.1830 93° East 207 238 8,800  Level Aus ATC (RADAR)
01:09AM -33.8726 149.2350 93° East 203 234 8,800  Level Aus ATC (RADAR)
01:10AM -33.8741 149.2694 93° East 202 232 8,800  Level Aus ATC (RADAR)
01:11AM -33.8757 149.3081 93° East 196 226 8,800  Level Aus ATC (RADAR)
01:11AM -33.8781 149.3728 93° East 206 237 8,800  Level Aus ATC (RADAR)
01:12AM -33.8806 149.4411 93° East 199 229 8,800  Level Aus ATC (RADAR)
01:13AM -33.8828 149.4993 93° East 202 232 8,800  Level Aus ATC (RADAR)
01:14AM -33.8852 149.5462 94° East 205 236 8,800  Level Aus ATC (RADAR)
01:15AM -33.8878 149.6039 93° East 202 232 8,800  Level Aus ATC (RADAR)
01:16AM -33.8900 149.6656 92° East 197 227 8,800  Level Aus ATC (RADAR)
01:17AM -33.8921 149.7340 92° East 199 229 8,800  Level Aus ATC (RADAR)
01:18AM -33.8944 149.7907 93° East 199 229 8,800  Level Aus ATC (RADAR)
01:18AM -33.8959 149.8420 92° East 199 229 8,800  Level Aus ATC (RADAR)
01:19AM -33.8978 149.8825 93° East 201 231 8,800  Level Aus ATC (RADAR)
01:20AM -33.9007 149.9412 93° East 208 239 8,800  Level Aus ATC (RADAR)
01:21AM -33.9030 150.0119 92° East 205 236 8,800  Level Aus ATC (RADAR)
01:22AM -33.9017 150.0825 89° East 205 236 8,800  Level Aus ATC (RADAR)
01:23AM -33.9047 150.1532 93° East 194 223 8,800  Level Aus ATC (RADAR)
01:23AM -33.9066 150.1892 94° East 208 239 8,800  Level Aus ATC (RADAR)
01:24AM -33.9081 150.2375 92° East 208 239 8,800 -420 Level Aus ATC (RADAR)
01:25AM -33.9110 150.2924 94° East 192 221 8,200 -660 Descending Aus ATC (RADAR)
01:26AM -33.9139 150.3525 93° East 193 222 7,700 -660 Descending Aus ATC (RADAR)
01:27AM -33.9206 150.4304 96° East 204 235 6,900 -900 Descending Aus ATC (RADAR)
01:28AM -33.9215 150.5073 91° East 202 232 5,800 -840 Descending Aus ATC (RADAR)
01:29AM -33.9237 150.5560 93° East 189 217 5,400 -540 Descending Aus ATC (RADAR)
01:29AM -33.9254 150.5917 93° East 181 208 5,100 -720 Descending Aus ATC (RADAR)
01:30AM -33.9267 150.6458 92° East 171 197 4,400 -720 Descending Aus ATC (RADAR)
01:31AM -33.9279 150.6981 92° East 167 192 3,800 -660 Descending Aus ATC (RADAR)
01:32AM -33.9294 150.7493 92° East 163 188 3,200 -900 Descending Aus ATC (RADAR)
01:33AM -33.9308 150.8099 92° East 160 184 2,100 -720 Descending Aus ATC (RADAR)
01:34AM -33.9352 150.8483 98° East 149 171 1,900 -480 Descending Aus ATC (RADAR)
01:34AM -33.9381 150.8778 97° East 148 170 1,500 -300 Descending Aus ATC (RADAR)
01:35AM -33.9413 150.9171 96° East 136 157 1,500 -60 Level Aus ATC (RADAR)
01:36AM -33.9319 150.9606 75° East 141 162 1,400 -420 Descending Aus ATC (RADAR)
01:37AM -33.9476 150.9989 116° Southeast 124 143 800 -600 Descending Aus ATC (RADAR)
01:38AM -33.9307 151.0025 10° North 79 91 200 -600 Descending Aus ATC (RADAR)